Time;durP1;ratioP1;P1;durP2;ratioP2;P2;SDS_P1;SDS_P2;PMS_P1;PMS_P2;Temp;Humidity;BMP_temperature;BMP_pressure;BME280_temperature;BME280_humidity;BME280_pressure;Samples;Min_cycle;Max_cycle;Signal;HPM_P1;HPM_P2
2024/01/09 00:02:17;;;;;;;;;;;0.80;99.90;;;;;;5019008;28;20041;-73
2024/01/09 00:04:43;;;;;;;23.52;11.77;;;0.80;99.90;;;;;;5025600;28;19909;-73
2024/01/09 00:07:08;;;;;;;23.88;13.23;;;0.80;99.90;;;;;;5025872;28;20119;-72
2024/01/09 00:09:35;;;;;;;24.33;13.93;;;0.80;99.90;;;;;;5020992;28;20418;-73
2024/01/09 00:12:01;;;;;;;23.17;13.15;;;0.80;99.90;;;;;;5025936;28;20034;-73
2024/01/09 00:14:26;;;;;;;27.10;13.27;;;0.80;99.90;;;;;;5019706;28;20037;-71
2024/01/09 00:16:52;;;;;;;27.10;13.67;;;0.80;99.90;;;;;;5022247;28;20079;-72
2024/01/09 00:19:17;;;;;;;24.37;12.43;;;0.80;99.90;;;;;;5020283;28;20029;-72
2024/01/09 00:21:46;;;;;;;25.30;12.60;;;0.80;99.90;;;;;;5017175;28;20289;-72
2024/01/09 00:24:11;;;;;;;25.65;12.90;;;0.70;99.90;;;;;;5018099;28;20372;-72
2024/01/09 00:26:41;;;;;;;23.70;12.57;;;0.80;99.90;;;;;;5023626;28;20117;-72
2024/01/09 00:29:07;;;;;;;25.58;13.25;;;0.80;99.90;;;;;;5021585;28;20634;-73
2024/01/09 00:31:33;;;;;;;25.48;12.65;;;0.70;99.90;;;;;;5021787;28;20030;-73
2024/01/09 00:33:59;;;;;;;24.60;13.30;;;0.70;99.90;;;;;;5021466;28;20037;-73
2024/01/09 00:36:24;;;;;;;29.30;14.30;;;0.80;99.90;;;;;;5020863;28;20405;-73
2024/01/09 00:38:50;;;;;;;25.90;13.60;;;0.80;99.90;;;;;;5021797;28;20021;-72
2024/01/09 00:41:16;;;;;;;29.80;13.57;;;0.70;99.90;;;;;;5018671;28;20506;-73
2024/01/09 00:43:42;;;;;;;24.93;14.07;;;0.70;99.90;;;;;;5022886;28;20045;-73
2024/01/09 00:46:07;;;;;;;21.00;11.35;;;0.70;99.90;;;;;;5022604;28;20101;-74
2024/01/09 00:48:33;;;;;;;23.65;13.27;;;0.70;99.90;;;;;;5018886;28;20025;-73
2024/01/09 00:50:59;;;;;;;28.10;15.18;;;0.70;99.90;;;;;;5019989;28;20061;-73
2024/01/09 00:53:25;;;;;;;28.63;13.95;;;0.70;99.90;;;;;;5017554;28;20530;-73
2024/01/09 00:55:50;;;;;;;26.27;14.18;;;0.70;99.90;;;;;;5021769;28;20114;-72
2024/01/09 00:58:16;;;;;;;23.90;13.37;;;0.70;99.90;;;;;;5024998;28;20497;-72
2024/01/09 01:00:41;;;;;;;26.70;13.40;;;0.70;99.90;;;;;;5027607;28;20351;-73
2024/01/09 01:03:07;;;;;;;27.25;14.57;;;0.70;99.90;;;;;;5026220;28;20672;-73
2024/01/09 01:05:33;;;;;;;27.67;14.00;;;0.70;99.90;;;;;;5029418;28;20033;-73
2024/01/09 01:07:59;;;;;;;28.02;14.60;;;0.70;99.90;;;;;;5027739;28;20036;-73
2024/01/09 01:10:24;;;;;;;27.10;14.20;;;0.70;99.90;;;;;;5026153;28;20022;-72
2024/01/09 01:12:50;;;;;;;27.38;14.27;;;0.70;99.90;;;;;;5026152;28;20227;-72
2024/01/09 01:15:16;;;;;;;29.05;15.15;;;0.70;99.90;;;;;;5028137;28;20029;-73
2024/01/09 01:17:42;;;;;;;25.45;13.82;;;0.70;99.90;;;;;;5028249;28;20025;-73
2024/01/09 01:20:09;;;;;;;30.98;15.07;;;0.70;99.90;;;;;;5024637;28;20041;-72
2024/01/09 01:22:35;;;;;;;26.90;14.07;;;0.60;99.90;;;;;;5027067;28;20100;-73
2024/01/09 01:25:01;;;;;;;25.90;13.48;;;0.60;99.90;;;;;;5026535;28;20053;-73
2024/01/09 01:27:26;;;;;;;27.40;14.95;;;0.60;99.90;;;;;;5026930;28;20052;-72
2024/01/09 01:29:52;;;;;;;29.17;14.23;;;0.60;99.90;;;;;;5029382;28;20077;-72
2024/01/09 01:32:17;;;;;;;26.17;14.50;;;0.60;99.90;;;;;;5026094;28;20038;-73
2024/01/09 01:34:43;;;;;;;30.17;15.70;;;0.60;99.90;;;;;;5027829;28;20038;-73
2024/01/09 01:37:09;;;;;;;33.93;16.67;;;0.50;99.90;;;;;;5028399;28;20277;-72
2024/01/09 01:39:36;;;;;;;30.52;17.17;;;0.50;99.90;;;;;;5027487;28;20273;-73
2024/01/09 01:42:02;;;;;;;32.53;18.15;;;0.50;99.90;;;;;;5021596;28;20083;-70
2024/01/09 01:44:28;;;;;;;31.75;17.70;;;0.50;99.90;;;;;;5027716;28;20033;-72
2024/01/09 01:46:54;;;;;;;32.50;17.17;;;0.50;99.90;;;;;;5022442;28;20059;-72
2024/01/09 01:49:21;;;;;;;36.15;18.40;;;0.50;99.90;;;;;;5028021;28;20059;-71
2024/01/09 01:51:50;;;;;;;32.28;17.33;;;0.50;99.90;;;;;;5024674;28;20103;-73
2024/01/09 01:54:16;;;;;;;26.77;16.10;;;0.50;99.90;;;;;;5020494;28;20059;-73
2024/01/09 01:56:43;;;;;;;27.65;15.55;;;0.50;99.90;;;;;;5029976;28;20045;-72
2024/01/09 01:59:10;;;;;;;28.92;14.40;;;0.50;99.90;;;;;;5020296;28;20034;-73
2024/01/09 02:01:36;;;;;;;29.42;15.55;;;0.50;99.90;;;;;;5033783;28;20037;-73
2024/01/09 02:04:03;;;;;;;28.88;15.32;;;0.50;99.90;;;;;;5029212;28;20044;-73
2024/01/09 02:06:31;;;;;;;;;;;0.50;99.90;;;;;;5027293;28;20040;-73
2024/01/09 02:08:57;;;;;;;29.48;16.02;;;0.50;99.90;;;;;;5034504;28;19913;-74
2024/01/09 02:11:22;;;;;;;31.70;17.55;;;0.50;99.90;;;;;;5024670;28;20027;-72
2024/01/09 02:13:48;;;;;;;32.67;16.63;;;0.50;99.90;;;;;;5018431;28;20054;-72
2024/01/09 02:16:14;;;;;;;30.60;16.63;;;0.50;99.90;;;;;;5030052;28;20034;-73
2024/01/09 02:18:40;;;;;;;29.33;15.77;;;0.50;99.90;;;;;;5029458;28;20025;-72
2024/01/09 02:21:05;;;;;;;33.73;14.80;;;0.50;99.90;;;;;;5054056;28;20065;-72
2024/01/09 02:23:31;;;;;;;27.67;14.98;;;0.50;99.90;;;;;;5027159;28;20490;-72
2024/01/09 02:25:57;;;;;;;30.03;16.03;;;0.40;99.90;;;;;;5027925;28;20085;-72
2024/01/09 02:28:40;;;;;;;29.95;15.88;;;0.40;99.90;;;;;;5024925;28;20277;-72
2024/01/09 02:31:06;;;;;;;27.45;14.32;;;0.40;99.90;;;;;;5029027;28;20075;-72
2024/01/09 02:33:34;;;;;;;28.88;15.35;;;0.40;99.90;;;;;;5030322;28;20065;-73
2024/01/09 02:35:59;;;;;;;26.50;14.45;;;0.40;99.90;;;;;;5023260;28;20061;-73
2024/01/09 02:38:25;;;;;;;31.98;16.60;;;0.40;99.90;;;;;;5022196;28;20067;-72
2024/01/09 02:40:50;;;;;;;29.80;15.97;;;0.50;99.90;;;;;;5056158;28;20044;-72
2024/01/09 02:43:16;;;;;;;34.20;17.13;;;0.50;99.90;;;;;;5022692;28;20452;-72
2024/01/09 02:45:42;;;;;;;30.10;16.20;;;0.50;99.90;;;;;;5027910;28;20030;-70
2024/01/09 02:48:08;;;;;;;35.33;16.20;;;0.50;99.90;;;;;;5016991;28;20112;-71
2024/01/09 02:50:33;;;;;;;29.77;15.82;;;0.50;99.90;;;;;;5016483;28;20220;-70
2024/01/09 02:52:59;;;;;;;34.55;15.82;;;0.50;99.90;;;;;;5026292;28;20068;-70
2024/01/09 02:55:24;;;;;;;35.25;17.20;;;0.50;99.90;;;;;;5022712;28;20025;-70
2024/01/09 02:57:50;;;;;;;34.05;18.00;;;0.50;99.90;;;;;;5055469;28;20029;-69
2024/01/09 03:00:16;;;;;;;32.42;17.02;;;0.50;99.90;;;;;;5026232;28;20367;-71
2024/01/09 03:02:42;;;;;;;30.38;16.77;;;0.50;99.90;;;;;;5026232;28;20029;-71
2024/01/09 03:05:08;;;;;;;32.78;17.55;;;0.50;99.90;;;;;;5033564;28;20037;-70
2024/01/09 03:07:34;;;;;;;30.60;17.65;;;0.50;99.90;;;;;;5028192;28;20051;-70
2024/01/09 03:10:00;;;;;;;30.17;16.63;;;0.50;99.90;;;;;;5023695;28;20060;-71
2024/01/09 03:12:26;;;;;;;;;;;0.50;99.90;;;;;;5024556;28;20037;-70
2024/01/09 03:14:52;;;;;;;33.60;16.23;;;0.50;99.90;;;;;;5021653;28;19917;-71
2024/01/09 03:17:18;;;;;;;34.47;15.70;;;0.50;99.90;;;;;;5019918;28;20128;-70
2024/01/09 03:19:43;;;;;;;31.25;17.23;;;0.50;99.90;;;;;;5021708;28;20038;-70
2024/01/09 03:22:09;;;;;;;33.17;16.38;;;0.50;99.90;;;;;;5023100;28;20040;-70
2024/01/09 03:24:35;;;;;;;33.80;17.55;;;0.50;99.90;;;;;;5019893;28;20403;-70
2024/01/09 03:27:00;;;;;;;30.02;15.85;;;0.50;99.90;;;;;;5022069;28;20021;-70
2024/01/09 03:29:26;;;;;;;33.03;16.48;;;0.50;99.90;;;;;;5025720;28;20116;-71
2024/01/09 03:31:51;;;;;;;27.58;15.23;;;0.50;99.90;;;;;;5021837;28;20049;-71
2024/01/09 03:34:17;;;;;;;35.60;16.23;;;0.50;99.90;;;;;;5019175;28;20025;-71
2024/01/09 03:36:44;;;;;;;34.90;17.80;;;0.50;99.90;;;;;;5024940;28;20014;-71
2024/01/09 03:39:11;;;;;;;34.65;17.17;;;0.50;99.90;;;;;;5058435;28;20033;-70
2024/01/09 03:41:37;;;;;;;33.08;17.63;;;0.50;99.90;;;;;;5017206;28;20091;-71
2024/01/09 03:44:03;;;;;;;32.47;15.82;;;0.50;99.90;;;;;;5020435;28;20037;-70
2024/01/09 03:46:29;;;;;;;29.15;15.68;;;0.50;99.90;;;;;;5025056;28;20034;-70
2024/01/09 03:48:54;;;;;;;34.93;15.57;;;0.50;99.90;;;;;;5019738;28;20040;-71
2024/01/09 03:51:20;;;;;;;30.83;16.20;;;0.50;99.90;;;;;;5017459;28;20283;-71
2024/01/09 03:53:45;;;;;;;31.35;17.10;;;0.50;99.90;;;;;;5020581;28;20430;-71
2024/01/09 03:56:11;;;;;;;40.53;18.40;;;0.50;99.90;;;;;;5022488;28;20117;-71
2024/01/09 03:58:37;;;;;;;34.42;18.42;;;0.50;99.90;;;;;;5019524;28;20495;-71
2024/01/09 04:01:03;;;;;;;33.50;17.52;;;0.50;99.90;;;;;;5022860;28;20025;-72
2024/01/09 04:03:29;;;;;;;33.70;16.58;;;0.50;99.90;;;;;;5017906;28;20026;-71
2024/01/09 04:05:54;;;;;;;36.77;18.37;;;0.50;99.90;;;;;;5028706;28;20030;-71
2024/01/09 04:08:20;;;;;;;31.27;16.47;;;0.50;99.90;;;;;;5028299;28;20318;-72
2024/01/09 04:10:45;;;;;;;34.75;17.52;;;0.50;99.90;;;;;;5023970;28;20044;-71
2024/01/09 04:13:11;;;;;;;35.20;18.95;;;0.50;99.90;;;;;;5019183;28;20049;-71
2024/01/09 04:15:38;;;;;;;38.88;17.23;;;0.50;99.90;;;;;;5022425;28;20034;-71
2024/01/09 04:18:04;;;;;;;33.85;18.08;;;0.50;99.90;;;;;;5021211;28;20017;-72
2024/01/09 04:20:29;;;;;;;35.00;17.45;;;0.50;99.90;;;;;;5029316;28;20521;-71
2024/01/09 04:22:55;;;;;;;33.45;15.88;;;0.50;99.90;;;;;;5022582;28;20033;-72
2024/01/09 04:25:20;;;;;;;43.07;18.10;;;0.50;99.90;;;;;;5017753;28;20474;-72
2024/01/09 04:27:46;;;;;;;36.30;19.37;;;0.50;99.90;;;;;;5022097;28;20299;-72
2024/01/09 04:30:12;;;;;;;31.95;17.10;;;0.50;99.90;;;;;;5028798;28;20926;-71
2024/01/09 04:32:38;;;;;;;37.75;17.33;;;0.50;99.90;;;;;;5017159;28;20602;-71
2024/01/09 04:35:04;;;;;;;30.70;15.45;;;0.50;99.90;;;;;;5023625;28;20021;-71
2024/01/09 04:37:29;;;;;;;29.98;16.60;;;0.50;99.90;;;;;;5019830;28;20033;-71
2024/01/09 04:39:55;;;;;;;39.47;20.08;;;0.50;99.90;;;;;;5015966;28;20403;-71
2024/01/09 04:42:20;;;;;;;53.08;19.25;;;0.50;99.90;;;;;;5021761;28;20041;-71
2024/01/09 04:44:46;;;;;;;31.13;17.00;;;0.50;99.90;;;;;;5016119;28;20026;-73
2024/01/09 04:47:21;;;;;;;34.47;17.13;;;0.50;99.90;;;;;;5017535;28;20044;-71
2024/01/09 04:49:47;;;;;;;34.42;17.30;;;0.50;99.90;;;;;;5016588;28;20498;-71
2024/01/09 04:52:13;;;;;;;32.08;17.60;;;0.50;99.90;;;;;;5019869;28;20041;-72
2024/01/09 04:54:39;;;;;;;41.40;19.17;;;0.50;99.90;;;;;;5022500;28;20041;-72
2024/01/09 04:57:05;;;;;;;34.38;17.77;;;0.40;99.90;;;;;;5014696;28;20121;-72
2024/01/09 04:59:30;;;;;;;36.58;18.08;;;0.40;99.90;;;;;;5015661;28;20036;-72
2024/01/09 05:01:56;;;;;;;38.80;18.60;;;0.40;99.90;;;;;;5021477;28;20495;-72
2024/01/09 05:04:22;;;;;;;38.13;18.65;;;0.40;99.90;;;;;;5017376;28;20346;-72
2024/01/09 05:06:49;;;;;;;41.87;19.13;;;0.40;99.90;;;;;;5025026;28;20037;-72
2024/01/09 05:09:15;;;;;;;36.10;19.23;;;0.40;99.90;;;;;;5022389;28;20279;-73
2024/01/09 05:11:40;;;;;;;40.67;21.38;;;0.40;99.90;;;;;;5021584;28;20026;-72
2024/01/09 05:14:06;;;;;;;40.08;19.90;;;0.40;99.90;;;;;;5018382;28;20034;-71
2024/01/09 05:16:31;;;;;;;40.10;20.90;;;0.30;99.90;;;;;;5017490;28;20018;-71
2024/01/09 05:18:57;;;;;;;41.87;20.97;;;0.30;99.90;;;;;;5019678;28;20387;-71
2024/01/09 05:21:23;;;;;;;40.53;20.83;;;0.30;99.90;;;;;;5019662;28;20037;-71
2024/01/09 05:23:48;;;;;;;41.05;19.92;;;0.30;99.90;;;;;;5018888;28;20307;-72
2024/01/09 05:26:14;;;;;;;46.60;20.83;;;0.30;99.90;;;;;;5019853;28;20026;-72
2024/01/09 05:28:39;;;;;;;42.03;21.37;;;0.30;99.90;;;;;;5016754;28;20785;-72
2024/01/09 05:31:05;;;;;;;42.90;20.83;;;0.30;99.90;;;;;;5016674;28;20292;-71
2024/01/09 05:33:31;;;;;;;44.20;20.05;;;0.30;99.90;;;;;;5020270;28;20049;-72
2024/01/09 05:35:58;;;;;;;43.25;19.60;;;0.30;99.90;;;;;;5018244;28;20125;-72
2024/01/09 05:38:24;;;;;;;42.25;19.80;;;0.30;99.90;;;;;;5026819;28;20038;-72
2024/01/09 05:40:51;;;;;;;36.75;18.92;;;0.30;99.90;;;;;;5017816;28;20040;-72
2024/01/09 05:43:17;;;;;;;40.33;18.65;;;0.30;99.90;;;;;;5028360;28;20045;-71
2024/01/09 05:45:43;;;;;;;42.13;18.83;;;0.30;99.90;;;;;;5020830;28;20429;-71
2024/01/09 05:48:09;;;;;;;48.50;20.13;;;0.30;99.90;;;;;;5022362;28;20048;-71
2024/01/09 05:50:34;;;;;;;38.42;19.65;;;0.30;99.90;;;;;;5020368;28;20038;-73
2024/01/09 05:53:02;;;;;;;38.60;19.38;;;0.30;99.90;;;;;;5029150;28;20049;-72
2024/01/09 05:55:27;;;;;;;40.55;19.88;;;0.30;99.90;;;;;;5021646;28;20036;-72
2024/01/09 05:57:53;;;;;;;40.47;19.30;;;0.30;99.90;;;;;;5051319;28;20025;-72
2024/01/09 06:00:19;;;;;;;37.60;17.70;;;0.30;99.90;;;;;;5019096;28;20782;-71
2024/01/09 06:02:44;;;;;;;38.47;19.48;;;0.30;99.90;;;;;;5018649;28;20503;-72
2024/01/09 06:05:10;;;;;;;41.63;20.08;;;0.30;99.90;;;;;;5020602;28;20034;-72
2024/01/09 06:07:36;;;;;;;37.97;19.08;;;0.30;99.90;;;;;;5025914;28;20047;-72
2024/01/09 06:10:03;;;;;;;40.85;20.15;;;0.30;99.90;;;;;;5018783;28;20029;-73
2024/01/09 06:12:28;;;;;;;45.13;20.98;;;0.30;99.90;;;;;;5018321;28;20034;-72
2024/01/09 06:14:54;;;;;;;41.63;20.08;;;0.30;99.90;;;;;;5031740;28;20035;-72
2024/01/09 06:17:21;;;;;;;43.53;21.10;;;0.30;99.90;;;;;;5023990;28;20458;-72
2024/01/09 06:19:46;;;;;;;42.72;20.88;;;0.30;99.90;;;;;;5020965;28;20048;-72
2024/01/09 06:22:12;;;;;;;38.28;19.63;;;0.30;99.90;;;;;;5023050;28;20120;-72
2024/01/09 06:24:38;;;;;;;41.05;20.50;;;0.30;99.90;;;;;;5029781;28;20045;-72
2024/01/09 06:27:03;;;;;;;40.07;20.33;;;0.30;99.90;;;;;;5022821;28;20407;-73
2024/01/09 06:29:29;;;;;;;40.08;20.17;;;0.30;99.90;;;;;;5021421;28;20022;-73
2024/01/09 06:31:55;;;;;;;47.58;21.38;;;0.30;99.90;;;;;;5021044;28;20040;-72
2024/01/09 06:34:21;;;;;;;40.03;21.00;;;0.30;99.90;;;;;;5021844;28;20035;-73
2024/01/09 06:36:47;;;;;;;42.20;21.33;;;0.30;99.90;;;;;;5020471;28;20034;-74
2024/01/09 06:39:13;;;;;;;44.40;22.25;;;0.30;99.90;;;;;;5029103;28;20277;-73
2024/01/09 06:41:39;;;;;;;47.35;20.58;;;0.30;99.90;;;;;;5023534;28;20037;-72
2024/01/09 06:44:04;;;;;;;50.97;20.65;;;0.30;99.90;;;;;;5019449;28;20036;-72
2024/01/09 06:46:32;;;;;;;41.72;20.40;;;0.30;99.90;;;;;;5017257;28;20050;-73
2024/01/09 06:48:57;;;;;;;42.70;19.58;;;0.30;99.90;;;;;;5025227;28;20099;-73
2024/01/09 06:51:25;;;;;;;44.15;21.25;;;0.20;99.90;;;;;;5019692;28;20030;-73
2024/01/09 06:53:51;;;;;;;38.25;20.02;;;0.20;99.90;;;;;;5018420;28;20108;-73
2024/01/09 06:56:17;;;;;;;44.75;20.88;;;0.20;99.90;;;;;;5017227;28;20120;-76
2024/01/09 06:58:45;;;;;;;43.70;21.02;;;0.30;99.90;;;;;;5025529;28;20029;-71
2024/01/09 07:01:11;;;;;;;38.63;20.15;;;0.20;99.90;;;;;;5021367;28;20022;-71
2024/01/09 07:03:37;;;;;;;39.83;19.77;;;0.20;99.90;;;;;;5030058;28;20053;-70
2024/01/09 07:06:04;;;;;;;42.97;19.67;;;0.20;99.90;;;;;;5031675;28;20065;-71
2024/01/09 07:08:29;;;;;;;39.17;20.13;;;0.30;99.90;;;;;;5026040;28;20038;-70
2024/01/09 07:10:56;;;;;;;41.38;19.25;;;0.30;99.90;;;;;;5017839;28;20072;-70
2024/01/09 07:13:22;;;;;;;50.38;24.38;;;0.30;99.90;;;;;;5024466;28;20092;-70
2024/01/09 07:15:49;;;;;;;42.28;21.55;;;0.30;99.90;;;;;;5026558;28;20095;-70
2024/01/09 07:18:15;;;;;;;43.85;23.17;;;0.30;99.90;;;;;;5043687;28;20033;-71
2024/01/09 07:20:40;;;;;;;43.92;23.17;;;0.30;99.90;;;;;;5035614;28;20063;-71
2024/01/09 07:23:06;;;;;;;45.65;22.02;;;0.30;99.90;;;;;;5024380;28;20029;-70
2024/01/09 07:25:32;;;;;;;45.73;21.47;;;0.30;99.90;;;;;;5027773;28;20447;-70
2024/01/09 07:27:57;;;;;;;49.53;22.50;;;0.30;99.90;;;;;;5020400;28;20280;-71
2024/01/09 07:30:23;;;;;;;46.93;22.47;;;0.30;99.90;;;;;;5021623;28;20300;-70
2024/01/09 07:32:48;;;;;;;48.25;22.20;;;0.30;99.90;;;;;;5013681;28;20308;-71
2024/01/09 07:35:14;;;;;;;42.87;21.60;;;0.30;99.90;;;;;;5023004;28;20044;-71
2024/01/09 07:37:40;;;;;;;57.38;22.73;;;0.30;99.90;;;;;;5026174;28;20026;-72
2024/01/09 07:40:06;;;;;;;45.78;22.80;;;0.30;99.90;;;;;;5013541;28;20589;-73
2024/01/09 07:42:32;;;;;;;;;;;0.30;99.90;;;;;;5009991;28;20129;-73
2024/01/09 07:44:58;;;;;;;45.72;21.48;;;0.30;99.90;;;;;;5024115;28;20408;-72
2024/01/09 07:47:23;;;;;;;47.35;21.67;;;0.30;99.90;;;;;;5026778;28;20128;-72
2024/01/09 07:49:49;;;;;;;46.07;21.20;;;0.30;99.90;;;;;;5016415;28;20057;-72
2024/01/09 07:52:15;;;;;;;51.05;22.15;;;0.30;99.90;;;;;;5020622;28;20992;-72
2024/01/09 07:54:41;;;;;;;48.30;21.73;;;0.30;99.90;;;;;;5019679;28;20048;-72
2024/01/09 07:57:07;;;;;;;;;;;0.30;99.90;;;;;;5024959;28;20112;-72
2024/01/09 07:59:33;;;;;;;44.83;21.55;;;0.30;99.90;;;;;;5030614;28;20012;-73
2024/01/09 08:02:01;;;;;;;52.33;23.55;;;0.30;99.90;;;;;;5019530;28;20071;-73
2024/01/09 08:04:27;;;;;;;46.38;21.88;;;0.30;99.90;;;;;;5022015;28;20022;-72
2024/01/09 08:06:53;;;;;;;46.13;21.25;;;0.30;99.90;;;;;;5021740;28;20475;-73
2024/01/09 08:09:19;;;;;;;46.15;21.15;;;0.30;99.90;;;;;;5018810;28;20031;-73
2024/01/09 08:11:46;;;;;;;45.65;21.42;;;0.30;99.90;;;;;;5015387;28;20068;-72
2024/01/09 08:14:13;;;;;;;49.15;21.75;;;0.30;99.90;;;;;;5011077;28;20048;-71
2024/01/09 08:16:39;;;;;;;;;;;0.30;99.90;;;;;;5023761;28;20030;-72
2024/01/09 08:19:04;;;;;;;50.03;22.38;;;0.40;99.90;;;;;;5019472;28;19996;-73
2024/01/09 08:21:31;;;;;;;44.95;21.88;;;0.40;99.90;;;;;;5023296;28;20116;-72
2024/01/09 08:23:57;;;;;;;48.22;21.92;;;0.40;99.90;;;;;;5029008;28;20028;-73
2024/01/09 08:26:23;;;;;;;44.03;22.38;;;0.40;99.90;;;;;;5028170;28;20093;-72
2024/01/09 08:28:48;;;;;;;56.60;24.95;;;0.40;99.90;;;;;;5018831;28;20037;-72
2024/01/09 10:31:34;;;;;;;44.10;22.38;;;1.50;99.90;;;;;;6308806;22;20095;-65
2024/01/09 10:34:00;;;;;;;41.40;20.75;;;1.90;99.90;;;;;;6306658;22;20090;-65
2024/01/09 10:36:27;;;;;;;36.50;19.30;;;1.90;99.90;;;;;;6306221;22;20037;-67
2024/01/09 10:39:04;;;;;;;40.58;19.70;;;1.90;99.90;;;;;;6306396;22;20234;-66
2024/01/09 10:41:31;;;;;;;46.45;21.50;;;1.90;99.90;;;;;;6306257;22;20038;-68
2024/01/09 10:43:56;;;;;;;41.15;20.67;;;1.90;99.90;;;;;;6306160;22;20082;-67
2024/01/09 10:46:24;;;;;;;45.65;20.80;;;1.90;99.90;;;;;;6278845;22;20038;-66
2024/01/09 10:48:51;;;;;;;39.85;19.33;;;1.90;99.90;;;;;;6306591;22;20026;-66
2024/01/09 10:51:18;;;;;;;43.78;21.27;;;1.90;99.90;;;;;;6305070;22;20007;-65
2024/01/09 10:53:46;;;;;;;40.78;20.58;;;2.00;99.90;;;;;;6305755;22;20057;-67
2024/01/09 10:56:17;;;;;;;39.17;19.27;;;2.10;99.90;;;;;;6306479;22;20349;-67
2024/01/09 10:58:47;;;;;;;41.67;21.60;;;2.00;99.90;;;;;;6306146;22;20082;-66
2024/01/09 11:01:15;;;;;;;48.38;21.25;;;2.10;99.90;;;;;;6305935;22;20006;-67
2024/01/09 11:03:42;;;;;;;42.08;19.95;;;2.00;99.90;;;;;;6305767;22;20007;-67
2024/01/09 11:06:09;;;;;;;46.95;22.42;;;1.90;99.90;;;;;;6305127;22;20025;-66
2024/01/09 11:08:35;;;;;;;44.80;21.63;;;2.00;99.90;;;;;;6305902;22;20007;-66
2024/01/09 11:11:05;;;;;;;44.03;21.98;;;2.00;99.90;;;;;;6305416;22;20081;-66
2024/01/09 11:13:34;;;;;;;50.03;22.45;;;2.10;99.90;;;;;;6305753;22;20026;-66
2024/01/09 11:16:02;;;;;;;45.00;22.02;;;2.00;99.90;;;;;;6306081;22;20339;-66
2024/01/09 11:18:28;;;;;;;47.25;22.55;;;1.90;99.90;;;;;;6305294;22;19999;-70
2024/01/09 11:21:00;;;;;;;47.15;23.17;;;1.80;99.90;;;;;;6279107;22;20026;-66
2024/01/09 11:24:00;;;;;;;49.35;21.88;;;1.90;99.90;;;;;;6278706;22;20339;-67
2024/01/09 11:26:37;;;;;;;46.67;22.83;;;1.90;99.90;;;;;;6305725;22;20033;-69
2024/01/09 11:29:04;;;;;;;46.65;21.75;;;1.90;99.90;;;;;;6306010;22;19999;-70
2024/01/09 11:31:30;;;;;;;49.42;23.02;;;1.90;99.90;;;;;;6273864;22;20018;-70
2024/01/09 11:33:57;;;;;;;42.40;21.75;;;2.00;99.90;;;;;;6298313;22;20451;-66
2024/01/09 11:36:37;;;;;;;45.78;23.02;;;2.00;99.90;;;;;;6271318;22;20518;-67
2024/01/09 11:39:05;;;;;;;50.05;23.83;;;2.00;99.90;;;;;;6298483;22;20015;-67
2024/01/09 11:41:33;;;;;;;49.47;21.95;;;2.00;99.90;;;;;;6298826;22;20007;-66
2024/01/09 11:43:58;;;;;;;46.95;22.80;;;2.00;99.90;;;;;;6299314;22;20082;-66
2024/01/09 11:46:24;;;;;;;44.28;21.08;;;2.00;99.90;;;;;;6299286;22;20506;-67
2024/01/09 11:48:50;;;;;;;41.30;21.27;;;2.00;99.90;;;;;;6298770;22;19999;-67
2024/01/09 11:51:17;;;;;;;41.40;21.48;;;2.00;99.90;;;;;;6270723;22;20072;-66
2024/01/09 11:53:43;;;;;;;40.28;21.27;;;2.00;99.90;;;;;;6298602;22;20013;-67
2024/01/09 11:56:12;;;;;;;42.80;20.33;;;1.80;99.90;;;;;;6298664;22;20450;-71
2024/01/09 11:58:38;;;;;;;39.00;20.02;;;1.80;99.90;;;;;;6298686;22;20079;-68
2024/01/09 12:01:04;;;;;;;45.83;19.80;;;1.80;99.90;;;;;;6298623;22;20049;-68
2024/01/09 12:03:29;;;;;;;39.20;18.98;;;1.80;99.90;;;;;;6298839;22;20007;-66
2024/01/09 12:05:56;;;;;;;38.80;18.67;;;1.80;99.90;;;;;;6299177;22;20066;-67
2024/01/09 12:08:24;;;;;;;35.05;18.33;;;1.80;99.90;;;;;;6299375;22;20003;-66
2024/01/09 12:10:49;;;;;;;44.53;20.98;;;1.80;99.90;;;;;;6298655;22;20011;-67
2024/01/09 12:13:18;;;;;;;39.08;19.95;;;1.80;99.90;;;;;;6299100;22;20831;-67
2024/01/09 12:15:44;;;;;;;39.47;19.15;;;1.90;99.90;;;;;;6299354;22;20091;-67
2024/01/09 12:18:09;;;;;;;38.53;18.10;;;2.00;99.90;;;;;;6298673;22;20056;-70
2024/01/09 12:20:35;;;;;;;36.50;20.30;;;2.00;99.90;;;;;;6298585;22;20265;-71
2024/01/09 12:23:02;;;;;;;36.05;18.30;;;1.90;99.90;;;;;;6269083;22;20007;-70
2024/01/09 12:25:28;;;;;;;35.88;19.45;;;1.80;99.90;;;;;;6298642;22;20030;-70
2024/01/09 12:27:54;;;;;;;44.50;21.52;;;1.70;99.90;;;;;;6298889;22;20064;-70
2024/01/09 12:30:21;;;;;;;43.40;22.48;;;1.70;99.90;;;;;;6298332;22;20015;-68
2024/01/09 12:32:47;;;;;;;40.45;19.02;;;1.70;99.90;;;;;;6298521;22;20060;-73
2024/01/09 12:35:13;;;;;;;40.72;19.15;;;1.70;99.90;;;;;;6270985;22;20011;-73
2024/01/09 12:37:38;;;;;;;40.03;19.27;;;1.70;99.90;;;;;;6299012;22;20449;-72
2024/01/09 12:40:09;;;;;;;35.28;18.75;;;1.70;99.90;;;;;;6298307;22;20717;-68
2024/01/09 12:42:36;;;;;;;37.85;17.60;;;1.60;99.90;;;;;;6298371;22;20004;-73
2024/01/09 12:45:02;;;;;;;43.63;21.33;;;1.50;99.90;;;;;;6298615;22;20427;-72
2024/01/09 12:47:28;;;;;;;36.85;18.65;;;1.60;99.90;;;;;;6298583;22;20445;-70
2024/01/09 12:49:54;;;;;;;35.33;17.65;;;1.60;99.90;;;;;;6298751;22;20038;-71
2024/01/09 12:52:20;;;;;;;34.45;18.80;;;1.70;99.90;;;;;;6298563;22;20027;-67
2024/01/09 12:54:49;;;;;;;42.83;20.52;;;1.90;99.90;;;;;;6297973;22;20498;-70
2024/01/09 12:57:15;;;;;;;38.78;19.30;;;1.90;99.90;;;;;;6298463;22;20006;-73
2024/01/09 12:59:43;;;;;;;40.80;20.53;;;1.80;99.90;;;;;;6298283;22;20011;-68
2024/01/09 13:02:09;;;;;;;42.70;21.45;;;1.80;99.90;;;;;;6298673;22;20257;-68
2024/01/09 13:04:35;;;;;;;47.53;21.30;;;1.70;99.90;;;;;;6299880;22;20343;-66
2024/01/09 13:07:03;;;;;;;55.13;23.60;;;1.70;99.90;;;;;;6299331;22;19999;-68
2024/01/09 13:09:29;;;;;;;45.15;21.75;;;1.60;99.90;;;;;;6298634;22;20003;-67
2024/01/09 13:11:54;;;;;;;45.20;21.67;;;1.60;99.90;;;;;;6298502;22;20033;-68
2024/01/09 13:14:20;;;;;;;42.53;21.50;;;1.60;99.90;;;;;;6298640;22;20003;-72
2024/01/09 13:16:46;;;;;;;43.55;21.92;;;1.60;99.90;;;;;;6298054;22;20385;-70
2024/01/09 13:19:13;;;;;;;;;;;1.70;99.90;;;;;;6298528;22;20338;-68
2024/01/09 13:21:39;;;;;;;43.50;21.70;;;1.70;99.90;;;;;;6297750;22;19902;-71
2024/01/09 13:24:07;;;;;;;53.55;24.58;;;1.60;99.90;;;;;;6298484;22;20294;-69
2024/01/09 13:26:34;;;;;;;46.58;22.63;;;1.60;99.90;;;;;;6298219;22;20018;-73
2024/01/09 13:28:59;;;;;;;50.38;24.45;;;1.60;99.90;;;;;;6270680;22;20029;-70
2024/01/09 13:31:25;;;;;;;44.00;23.38;;;1.60;99.90;;;;;;6270856;22;20389;-71
2024/01/09 13:33:51;;;;;;;50.20;23.80;;;1.60;99.90;;;;;;6298145;22;20006;-70
2024/01/09 13:36:18;;;;;;;48.57;25.17;;;1.60;99.90;;;;;;6297172;22;20230;-70
2024/01/09 13:38:44;;;;;;;42.13;21.60;;;1.60;99.90;;;;;;6297041;22;19999;-78
2024/01/09 13:41:13;;;;;;;46.80;24.30;;;1.70;99.90;;;;;;6298245;22;20043;-81
2024/01/09 13:43:39;;;;;;;51.80;24.63;;;1.80;99.90;;;;;;6294733;22;20778;-66
2024/01/09 13:46:05;;;;;;;45.53;23.15;;;1.80;99.90;;;;;;6297032;22;20061;-67
2024/01/09 13:48:31;;;;;;;47.90;24.25;;;1.80;99.90;;;;;;6298477;22;19999;-66
2024/01/09 13:50:57;;;;;;;47.05;23.02;;;1.80;99.90;;;;;;6296509;22;20070;-66
2024/01/09 13:53:23;;;;;;;46.95;23.05;;;1.70;99.90;;;;;;6270778;22;20038;-65
2024/01/09 13:55:49;;;;;;;49.30;23.85;;;1.70;99.90;;;;;;6299081;22;19999;-69
2024/01/09 13:58:15;;;;;;;51.35;24.88;;;1.70;99.90;;;;;;6298995;22;20057;-66
2024/01/09 14:00:41;;;;;;;;;;;1.70;99.90;;;;;;6299463;22;20019;-66
2024/01/09 14:03:08;;;;;;;47.15;22.13;;;1.70;99.90;;;;;;6299294;22;20319;-65
2024/01/09 14:05:34;;;;;;;44.42;22.52;;;1.70;99.90;;;;;;6271935;22;20032;-67
2024/01/09 14:07:59;;;;;;;48.25;22.65;;;1.70;99.90;;;;;;6299382;22;20078;-65
2024/01/09 14:10:25;;;;;;;48.58;23.08;;;1.70;99.90;;;;;;6298413;22;20007;-67
2024/01/09 14:12:51;;;;;;;47.47;23.08;;;1.80;99.90;;;;;;6298676;22;20000;-66
2024/01/09 14:15:16;;;;;;;45.20;22.38;;;1.80;99.90;;;;;;6298389;22;20007;-66
2024/01/09 14:17:45;;;;;;;42.50;20.83;;;1.80;99.90;;;;;;6297539;22;20034;-66
2024/01/09 14:20:12;;;;;;;43.40;21.15;;;1.80;99.90;;;;;;6298585;22;20015;-66
2024/01/09 14:22:38;;;;;;;39.85;19.70;;;1.70;99.90;;;;;;6271660;22;20512;-66
2024/01/09 14:25:07;;;;;;;41.42;21.05;;;1.70;99.90;;;;;;6296580;22;20007;-67
2024/01/09 14:27:33;;;;;;;42.40;20.52;;;1.60;99.90;;;;;;6298856;22;20045;-66
2024/01/09 14:30:02;;;;;;;44.22;22.13;;;1.60;99.90;;;;;;6299270;22;20014;-66
2024/01/09 14:32:28;;;;;;;39.22;20.70;;;1.70;99.90;;;;;;6298628;22;20074;-67
2024/01/09 14:34:53;;;;;;;46.30;22.02;;;1.70;99.90;;;;;;6298722;22;20046;-66
2024/01/09 14:37:19;;;;;;;47.47;22.92;;;1.70;99.90;;;;;;6298756;22;20004;-69